createdAt,value
2023-04-07T00:00:11.448Z,16
2023-04-07T00:01:19.900Z,16
2023-04-07T00:02:28.498Z,16
2023-04-07T00:03:37.153Z,13.9
2023-04-07T00:04:45.568Z,13.9
2023-04-07T00:05:53.987Z,13.9
2023-04-07T00:07:02.670Z,14.8
2023-04-07T00:08:11.117Z,14.8
2023-04-07T00:09:19.583Z,14.8
2023-04-07T00:10:28.272Z,15.5
2023-04-07T00:11:36.759Z,15.5
2023-04-07T00:12:45.170Z,15.5
2023-04-07T00:13:54.031Z,15.4
2023-04-07T00:15:02.355Z,15.4
2023-04-07T00:16:10.839Z,15.4
2023-04-07T00:17:19.523Z,15.2
2023-04-07T00:18:28.026Z,15.2
2023-04-07T00:19:36.491Z,15.2
2023-04-07T00:20:45.153Z,17.200001
2023-04-07T00:21:53.622Z,17.200001
2023-04-07T00:23:02.109Z,17.200001
2023-04-07T00:24:10.850Z,15.3
2023-04-07T00:25:19.258Z,15.3
2023-04-07T00:26:27.720Z,15.3
2023-04-07T00:27:36.453Z,16.6
2023-04-07T00:28:44.892Z,16.6
2023-04-07T00:29:53.418Z,16.6
2023-04-07T00:31:02.065Z,15.8
2023-04-07T00:32:10.570Z,15.8
2023-04-07T00:33:19.112Z,15.8
2023-04-07T00:34:27.773Z,16.700001
2023-04-07T00:35:36.296Z,16.700001
2023-04-07T00:36:44.730Z,16.700001
2023-04-07T00:37:53.449Z,16.4
2023-04-07T00:39:01.919Z,16.4
2023-04-07T00:40:10.416Z,16.4
2023-04-07T00:41:19.145Z,16.200001
2023-04-07T00:42:27.635Z,16.200001
2023-04-07T00:43:36.154Z,16.200001
2023-04-07T00:44:44.795Z,16.700001
2023-04-07T00:45:53.275Z,16.700001
2023-04-07T00:47:01.780Z,16.700001
2023-04-07T00:48:10.465Z,14.1
2023-04-07T00:49:18.948Z,14.1
2023-04-07T00:50:27.433Z,14.1
2023-04-07T00:51:36.114Z,16.5
2023-04-07T00:52:44.608Z,16.5
2023-04-07T00:53:53.200Z,16.5
2023-04-07T00:55:01.795Z,17
2023-04-07T00:56:10.220Z,17
2023-04-07T00:57:18.664Z,17
2023-04-07T00:58:27.372Z,16.6
2023-04-07T00:59:35.862Z,16.6
2023-04-07T01:00:44.322Z,16.6
2023-04-07T01:01:53.049Z,14.9
2023-04-07T01:03:01.717Z,14.9
2023-04-07T01:04:10.082Z,14.9
2023-04-07T01:05:18.651Z,13.9
2023-04-07T01:06:27.105Z,13.9
2023-04-07T01:07:35.571Z,13.9
2023-04-07T01:08:44.274Z,16.5
2023-04-07T01:09:52.743Z,16.5
2023-04-07T01:11:01.226Z,16.5
2023-04-07T01:12:09.913Z,14.3
2023-04-07T01:13:18.369Z,14.3
2023-04-07T01:14:26.846Z,14.3
2023-04-07T01:15:35.547Z,15.5
2023-04-07T01:16:43.980Z,15.5
2023-04-07T01:17:52.477Z,15.5
2023-04-07T01:19:01.166Z,14.9
2023-04-07T01:20:09.640Z,14.9
2023-04-07T01:21:18.120Z,14.9
2023-04-07T01:22:26.828Z,14.8
2023-04-07T01:23:35.287Z,14.8
2023-04-07T01:24:43.782Z,14.8
2023-04-07T01:25:52.438Z,14.9
2023-04-07T01:27:00.909Z,14.9
2023-04-07T01:28:09.369Z,14.9
2023-04-07T01:29:18.042Z,15.7
2023-04-07T01:30:26.528Z,15.7
2023-04-07T01:31:35.108Z,15.7
2023-04-07T01:32:43.718Z,16.700001
2023-04-07T01:33:52.448Z,16.700001
2023-04-07T01:35:00.667Z,16.700001
2023-04-07T01:36:09.333Z,17
2023-04-07T01:37:17.866Z,17
2023-04-07T01:38:26.286Z,17
2023-04-07T01:39:34.963Z,17
2023-04-07T01:40:43.472Z,17
2023-04-07T01:41:51.952Z,17
2023-04-07T01:43:00.629Z,15.9
2023-04-07T01:44:09.140Z,15.9
2023-04-07T01:45:17.607Z,15.9
2023-04-07T01:46:26.273Z,16.1
2023-04-07T01:47:34.815Z,16.1
2023-04-07T01:48:43.213Z,16.1
2023-04-07T01:49:51.879Z,18.700001
2023-04-07T01:51:00.334Z,18.700001
2023-04-07T01:52:08.804Z,18.700001
2023-04-07T01:53:17.474Z,16.4
2023-04-07T01:54:25.936Z,16.4
2023-04-07T01:55:34.387Z,16.4
2023-04-07T01:56:43.082Z,16.9
2023-04-07T01:57:51.514Z,16.9
2023-04-07T01:58:59.961Z,16.9
2023-04-07T02:00:08.644Z,19.1
2023-04-07T02:01:17.140Z,19.1
2023-04-07T02:02:25.710Z,19.1
2023-04-07T02:03:34.407Z,19.700001
2023-04-07T02:04:42.723Z,19.700001
2023-04-07T02:05:51.189Z,19.700001
2023-04-07T02:06:59.868Z,17.9
2023-04-07T02:08:08.333Z,17.9
2023-04-07T02:09:16.786Z,17.9
2023-04-07T02:10:25.453Z,17.1
2023-04-07T02:11:33.967Z,17.1
2023-04-07T02:12:42.429Z,17.1
2023-04-07T02:13:51.149Z,16.9
2023-04-07T02:14:59.625Z,16.9
2023-04-07T02:16:08.134Z,16.9
2023-04-07T02:17:16.751Z,16
2023-04-07T02:18:25.230Z,16
2023-04-07T02:19:33.710Z,16
2023-04-07T02:20:42.360Z,16.700001
2023-04-07T02:21:50.771Z,16.700001
2023-04-07T02:22:59.238Z,16.700001
2023-04-07T02:24:07.994Z,18.799999
2023-04-07T02:25:16.396Z,18.799999
2023-04-07T02:26:24.876Z,18.799999
2023-04-07T02:27:33.547Z,16
2023-04-07T02:28:42.014Z,16
2023-04-07T02:29:50.504Z,16
2023-04-07T02:30:59.164Z,16.1
2023-04-07T02:32:07.668Z,16.1
2023-04-07T02:33:16.084Z,16.1
2023-04-07T02:34:24.754Z,15.2
2023-04-07T02:35:33.256Z,15.2
2023-04-07T02:36:41.734Z,15.2
2023-04-07T02:37:50.429Z,17
2023-04-07T02:38:58.871Z,17
2023-04-07T02:40:07.322Z,17
2023-04-07T02:41:16.007Z,15
2023-04-07T02:42:24.452Z,15
2023-04-07T02:43:32.928Z,15
2023-04-07T02:44:41.603Z,18.700001
2023-04-07T02:45:50.136Z,18.700001
2023-04-07T02:46:58.582Z,18.700001
2023-04-07T02:48:07.227Z,15.8
2023-04-07T02:49:15.685Z,15.8
2023-04-07T02:50:24.147Z,15.8
2023-04-07T02:51:32.844Z,16.299999
2023-04-07T02:52:41.264Z,16.299999
2023-04-07T02:53:49.734Z,16.299999
2023-04-07T02:54:58.454Z,17.200001
2023-04-07T02:56:06.963Z,17.200001
2023-04-07T02:57:15.423Z,17.200001
2023-04-07T02:58:24.117Z,15.4
2023-04-07T02:59:32.566Z,15.4
2023-04-07T03:00:41.032Z,15.4
2023-04-07T03:01:49.770Z,14.4
2023-04-07T03:02:58.204Z,14.4
2023-04-07T03:04:06.722Z,14.4
2023-04-07T03:05:15.338Z,14.6
2023-04-07T03:06:23.765Z,14.6
2023-04-07T03:07:32.294Z,14.6
2023-04-07T03:08:40.922Z,14
2023-04-07T03:09:49.400Z,14
2023-04-07T03:10:57.874Z,14
2023-04-07T03:12:06.529Z,16.4
2023-04-07T03:13:15.004Z,16.4
2023-04-07T03:14:23.469Z,16.4
2023-04-07T03:15:32.140Z,14.6
2023-04-07T03:16:40.607Z,14.6
2023-04-07T03:17:49.152Z,14.6
2023-04-07T03:18:57.773Z,14.5
2023-04-07T03:20:06.244Z,14.5
2023-04-07T03:21:14.729Z,14.5
2023-04-07T03:22:23.438Z,15.7
2023-04-07T03:23:31.906Z,15.7
2023-04-07T03:24:40.372Z,15.7
2023-04-07T03:25:49.067Z,15.1
2023-04-07T03:26:57.581Z,15.1
2023-04-07T03:28:06.017Z,15.1
2023-04-07T03:29:14.699Z,16.299999
2023-04-07T03:30:23.153Z,16.299999
2023-04-07T03:31:31.605Z,16.299999
2023-04-07T03:32:40.258Z,21.299999
2023-04-07T03:33:48.736Z,21.299999
2023-04-07T03:34:57.200Z,21.299999
2023-04-07T03:36:05.890Z,16.299999
2023-04-07T03:37:14.345Z,16.299999
2023-04-07T03:38:22.825Z,16.299999
2023-04-07T03:39:31.497Z,15.4
2023-04-07T03:40:39.961Z,15.4
2023-04-07T03:41:48.415Z,15.4
2023-04-07T03:42:57.092Z,14.7
2023-04-07T03:44:05.582Z,14.7
2023-04-07T03:45:14.059Z,14.7
2023-04-07T03:46:22.754Z,16.799999
2023-04-07T03:47:31.224Z,16.799999
2023-04-07T03:48:39.659Z,16.799999
2023-04-07T03:49:48.335Z,15.5
2023-04-07T03:50:56.783Z,15.5
2023-04-07T03:52:05.245Z,15.5
2023-04-07T03:53:13.901Z,17
2023-04-07T03:54:22.353Z,17
2023-04-07T03:55:30.861Z,17
2023-04-07T03:56:39.518Z,15.6
2023-04-07T03:57:47.970Z,15.6
2023-04-07T03:58:56.440Z,15.6
2023-04-07T04:00:05.080Z,14.4
2023-04-07T04:01:13.527Z,14.4
2023-04-07T04:02:22.128Z,14.4
2023-04-07T04:03:30.792Z,14
2023-04-07T04:04:39.186Z,14
2023-04-07T04:05:47.629Z,14
2023-04-07T04:06:56.305Z,19.799999
2023-04-07T04:08:04.860Z,19.799999
2023-04-07T04:09:13.325Z,19.799999
2023-04-07T04:10:22.023Z,15.3
2023-04-07T04:11:30.491Z,15.3
2023-04-07T04:12:38.982Z,15.3
2023-04-07T04:13:47.686Z,15.6
2023-04-07T04:14:56.171Z,15.6
2023-04-07T04:16:04.756Z,15.6
2023-04-07T04:17:13.305Z,14.2
2023-04-07T04:18:21.816Z,14.2
2023-04-07T04:19:30.284Z,14.2
2023-04-07T04:20:38.984Z,17.700001
2023-04-07T04:21:47.463Z,17.700001
2023-04-07T04:22:55.918Z,17.700001
2023-04-07T04:24:04.666Z,14.3
2023-04-07T04:25:13.142Z,14.3
2023-04-07T04:26:21.625Z,14.3
2023-04-07T04:27:30.305Z,15.7
2023-04-07T04:28:39.034Z,15.7
2023-04-07T04:29:47.234Z,15.7
2023-04-07T04:30:55.919Z,15.1
2023-04-07T04:32:04.361Z,15.1
2023-04-07T04:33:12.819Z,15.1
2023-04-07T04:34:21.501Z,14.5
2023-04-07T04:35:30.014Z,14.5
2023-04-07T04:36:38.678Z,14.5
2023-04-07T04:37:47.220Z,17.1
2023-04-07T04:38:55.700Z,17.1
2023-04-07T04:40:04.161Z,17.1
2023-04-07T04:41:12.851Z,15.7
2023-04-07T04:42:21.338Z,15.7
2023-04-07T04:43:29.853Z,15.7
2023-04-07T04:44:38.563Z,14.7
2023-04-07T04:45:47.051Z,14.7
2023-04-07T04:46:55.556Z,14.7
2023-04-07T04:48:04.243Z,15
2023-04-07T04:49:12.726Z,15
2023-04-07T04:50:21.220Z,15
2023-04-07T04:51:29.940Z,16.299999
2023-04-07T04:52:38.494Z,16.299999
2023-04-07T04:53:47.012Z,16.299999
2023-04-07T04:54:55.710Z,16.9
2023-04-07T04:56:04.227Z,16.9
2023-04-07T04:57:12.721Z,16.9
2023-04-07T04:58:21.403Z,15.6
2023-04-07T04:59:29.898Z,15.6
2023-04-07T05:00:38.407Z,15.6
2023-04-07T05:01:47.144Z,15.4
2023-04-07T05:02:55.721Z,15.4
2023-04-07T05:04:04.271Z,15.4
2023-04-07T05:05:12.840Z,14.1
2023-04-07T05:06:21.322Z,14.1
2023-04-07T05:07:29.793Z,14.1
2023-04-07T05:08:38.442Z,15.2
2023-04-07T05:09:46.946Z,15.2
2023-04-07T05:10:55.438Z,15.2
2023-04-07T05:12:04.189Z,13.3
2023-04-07T05:13:12.655Z,13.3
2023-04-07T05:14:21.099Z,13.3
2023-04-07T05:15:30.051Z,14.9
2023-04-07T05:16:38.377Z,14.9
2023-04-07T05:17:46.824Z,14.9
2023-04-07T05:18:55.506Z,17
2023-04-07T05:20:04.012Z,17
2023-04-07T05:21:12.462Z,17
2023-04-07T05:22:21.169Z,16
2023-04-07T05:23:29.622Z,16
2023-04-07T05:24:38.099Z,16
2023-04-07T05:25:46.845Z,16.700001
2023-04-07T05:26:55.316Z,16.700001
2023-04-07T05:28:03.762Z,16.700001
2023-04-07T05:29:12.435Z,15.6
2023-04-07T05:30:20.911Z,15.6
2023-04-07T05:31:29.433Z,15.6
2023-04-07T05:32:38.154Z,15.1
2023-04-07T05:33:46.600Z,15.1
2023-04-07T05:34:55.069Z,15.1
2023-04-07T05:36:03.771Z,15.8
2023-04-07T05:37:12.269Z,15.8
2023-04-07T05:38:20.761Z,15.8
2023-04-07T05:39:29.452Z,17.299999
2023-04-07T05:40:38.004Z,17.299999
2023-04-07T05:41:46.389Z,17.299999
2023-04-07T05:42:55.070Z,17.4
2023-04-07T05:44:03.606Z,17.4
2023-04-07T05:45:12.098Z,17.4
2023-04-07T05:46:20.798Z,15.5
2023-04-07T05:47:29.299Z,15.5
2023-04-07T05:48:37.746Z,15.5
2023-04-07T05:49:46.438Z,18.200001
2023-04-07T05:50:54.923Z,18.200001
2023-04-07T05:52:03.430Z,18.200001
2023-04-07T05:53:12.038Z,17
2023-04-07T05:54:20.526Z,17
2023-04-07T05:55:29.020Z,17
2023-04-07T05:56:37.754Z,16.6
2023-04-07T05:57:46.255Z,16.6
2023-04-07T05:58:54.753Z,16.6
2023-04-07T06:00:03.475Z,21.5
2023-04-07T06:01:12.004Z,21.5
2023-04-07T06:02:20.621Z,21.5
2023-04-07T06:03:29.203Z,15.8
2023-04-07T06:04:37.725Z,15.8
2023-04-07T06:05:46.313Z,15.8
2023-04-07T06:06:54.961Z,16.799999
2023-04-07T06:08:03.336Z,16.799999
2023-04-07T06:09:11.776Z,16.799999
2023-04-07T06:10:20.405Z,15.6
2023-04-07T06:11:28.783Z,15.6
2023-04-07T06:12:37.157Z,15.6
2023-04-07T06:13:45.772Z,15.9
2023-04-07T06:14:54.210Z,15.9
2023-04-07T06:16:02.669Z,15.9
2023-04-07T06:17:11.376Z,14.6
2023-04-07T06:18:19.880Z,14.6
2023-04-07T06:19:28.388Z,14.6
2023-04-07T06:20:37.140Z,16.799999
2023-04-07T06:21:45.591Z,16.799999
2023-04-07T06:22:54.031Z,16.799999
2023-04-07T06:24:02.715Z,15.6
2023-04-07T06:25:11.158Z,15.6
2023-04-07T06:26:19.620Z,15.6
2023-04-07T06:27:28.311Z,15.2
2023-04-07T06:28:36.804Z,15.2
2023-04-07T06:29:45.250Z,15.2
2023-04-07T06:30:53.886Z,14.4
2023-04-07T06:32:02.365Z,14.4
2023-04-07T06:33:10.870Z,14.4
2023-04-07T06:34:19.697Z,16
2023-04-07T06:35:28.261Z,16
2023-04-07T06:36:36.809Z,16
2023-04-07T06:37:45.533Z,14.9
2023-04-07T06:38:54.060Z,14.9
2023-04-07T06:40:02.589Z,14.9
2023-04-07T06:41:11.362Z,16.6
2023-04-07T06:42:19.947Z,16.6
2023-04-07T06:43:28.466Z,16.6
2023-04-07T06:44:37.163Z,16.799999
2023-04-07T06:45:45.710Z,16.799999
2023-04-07T06:46:54.139Z,16.799999
2023-04-07T06:48:02.912Z,18.1
2023-04-07T06:49:11.336Z,18.1
2023-04-07T06:50:19.885Z,18.1
2023-04-07T06:51:28.629Z,18
2023-04-07T06:52:37.140Z,18
2023-04-07T06:53:45.626Z,18
2023-04-07T06:54:54.138Z,16.700001
2023-04-07T06:56:02.539Z,16.700001
2023-04-07T06:57:10.953Z,16.700001
2023-04-07T06:58:19.569Z,19.200001
2023-04-07T06:59:27.987Z,19.200001
2023-04-07T07:00:36.419Z,19.200001
2023-04-07T07:01:45.077Z,14.4
2023-04-07T07:02:53.593Z,14.4
2023-04-07T07:04:02.128Z,14.4
2023-04-07T07:05:10.688Z,13.7
2023-04-07T07:06:19.134Z,13.7
2023-04-07T07:07:27.640Z,13.7
2023-04-07T07:08:36.267Z,16.799999
2023-04-07T07:09:44.736Z,16.799999
2023-04-07T07:10:53.139Z,16.799999
2023-04-07T07:12:02.854Z,16.299999
2023-04-07T07:13:10.659Z,16.299999
2023-04-07T07:14:20.828Z,16.299999
2023-04-07T07:15:29.511Z,13.2
2023-04-07T07:16:38.382Z,13.2
2023-04-07T07:17:46.958Z,13.2
2023-04-07T07:18:55.795Z,18.799999
2023-04-07T07:20:04.292Z,18.799999
2023-04-07T07:21:12.700Z,18.799999
2023-04-07T07:22:21.345Z,13.8
2023-04-07T07:23:29.929Z,13.8
2023-04-07T07:24:38.466Z,13.8
2023-04-07T07:25:47.193Z,14.5
2023-04-07T07:26:55.773Z,14.5
2023-04-07T07:28:04.429Z,14.5
2023-04-07T07:29:13.221Z,15.5
2023-04-07T07:30:21.820Z,15.5
2023-04-07T07:31:30.780Z,15.5
2023-04-07T07:32:40.215Z,16.700001
2023-04-07T07:33:49.929Z,16.700001
2023-04-07T07:34:58.546Z,16.700001
2023-04-07T07:36:07.195Z,15.1
2023-04-07T07:37:15.652Z,15.1
2023-04-07T07:38:24.104Z,15.1
2023-04-07T07:39:32.799Z,21.700001
2023-04-07T07:40:41.329Z,21.700001
2023-04-07T07:41:50.362Z,21.700001
2023-04-07T07:42:59.599Z,17
2023-04-07T07:44:08.938Z,17
2023-04-07T07:45:17.999Z,17
2023-04-07T07:46:26.879Z,14.1
2023-04-07T07:47:35.822Z,14.1
2023-04-07T07:48:44.728Z,14.1
2023-04-07T07:49:53.657Z,16.6
2023-04-07T07:51:02.434Z,16.6
2023-04-07T07:52:11.298Z,16.6
2023-04-07T07:53:20.288Z,14.2
2023-04-07T07:54:29.437Z,14.2
2023-04-07T07:55:38.236Z,14.2
2023-04-07T07:56:46.835Z,23.700001
2023-04-07T07:57:55.267Z,23.700001
2023-04-07T07:59:03.709Z,23.700001
2023-04-07T08:00:12.362Z,36
2023-04-07T08:01:20.758Z,36
2023-04-07T08:02:29.269Z,36
2023-04-07T08:03:38.052Z,32.299999
2023-04-07T08:04:46.350Z,32.299999
2023-04-07T08:05:54.741Z,32.299999
2023-04-07T08:07:03.395Z,15.7
2023-04-07T08:08:11.824Z,15.7
2023-04-07T08:09:20.309Z,15.7
2023-04-07T08:10:28.929Z,16.299999
2023-04-07T08:11:37.362Z,16.299999
2023-04-07T08:12:45.809Z,16.299999
2023-04-07T08:13:54.437Z,18.9
2023-04-07T08:15:02.830Z,18.9
2023-04-07T08:16:11.245Z,18.9
2023-04-07T08:17:19.864Z,18.1
2023-04-07T08:18:28.217Z,18.1
2023-04-07T08:19:36.597Z,18.1
2023-04-07T08:20:45.152Z,22
2023-04-07T08:21:53.526Z,22
2023-04-07T08:23:02.009Z,22
2023-04-07T08:24:10.576Z,17
2023-04-07T08:25:18.956Z,17
2023-04-07T08:26:27.291Z,17
2023-04-07T08:27:35.884Z,19.1
2023-04-07T08:28:44.234Z,19.1
2023-04-07T08:29:52.596Z,19.1
2023-04-07T08:31:01.171Z,17.200001
2023-04-07T08:32:09.984Z,17.200001
2023-04-07T08:33:18.362Z,17.200001
2023-04-07T08:34:26.932Z,19
2023-04-07T08:35:35.320Z,19
2023-04-07T08:36:44.152Z,19
2023-04-07T08:37:52.235Z,19.1
2023-04-07T08:39:00.616Z,19.1
2023-04-07T08:40:08.969Z,19.1
2023-04-07T08:41:17.552Z,17.9
2023-04-07T08:42:26.033Z,17.9
2023-04-07T08:43:34.412Z,17.9
2023-04-07T08:44:42.931Z,19.1
2023-04-07T08:45:53.042Z,19.1
2023-04-07T08:46:59.749Z,19.1
2023-04-07T08:48:08.344Z,20.200001
2023-04-07T08:49:16.714Z,20.200001
2023-04-07T08:50:25.074Z,20.200001
2023-04-07T08:51:33.644Z,18.299999
2023-04-07T08:52:42.012Z,18.299999
2023-04-07T08:53:50.420Z,18.299999
2023-04-07T08:54:58.979Z,19.5
2023-04-07T08:56:07.375Z,19.5
2023-04-07T08:57:15.713Z,19.5
2023-04-07T08:58:24.953Z,18.700001
2023-04-07T08:59:33.419Z,18.700001
2023-04-07T09:00:41.914Z,18.700001
2023-04-07T09:01:50.481Z,17.799999
2023-04-07T09:02:58.979Z,17.799999
2023-04-07T09:04:07.422Z,17.799999
2023-04-07T09:05:16.005Z,25.200001
2023-04-07T09:06:24.455Z,25.200001
2023-04-07T09:07:32.913Z,25.200001
2023-04-07T09:08:41.557Z,18.4
2023-04-07T09:09:49.972Z,18.4
2023-04-07T09:10:58.400Z,18.4
2023-04-07T09:12:07.028Z,21.200001
2023-04-07T09:13:15.441Z,21.200001
2023-04-07T09:14:23.849Z,21.200001
2023-04-07T09:15:32.524Z,18.700001
2023-04-07T09:16:40.931Z,18.700001
2023-04-07T09:17:49.384Z,18.700001
2023-04-07T09:18:57.944Z,17.9
2023-04-07T09:20:06.370Z,17.9
2023-04-07T09:21:15.800Z,17.9
2023-04-07T09:22:23.454Z,17.6
2023-04-07T09:23:31.850Z,17.6
2023-04-07T09:24:40.259Z,17.6
2023-04-07T09:25:48.924Z,17.5
2023-04-07T09:26:57.302Z,17.5
2023-04-07T09:28:05.766Z,17.5
2023-04-07T09:29:14.391Z,20.5
2023-04-07T09:30:22.894Z,20.5
2023-04-07T09:31:31.340Z,20.5
2023-04-07T09:32:39.894Z,16.799999
2023-04-07T09:33:48.351Z,16.799999
2023-04-07T09:34:56.581Z,16.799999
2023-04-07T09:36:05.175Z,18.5
2023-04-07T09:37:13.551Z,18.5
2023-04-07T09:38:21.919Z,18.5
2023-04-07T09:39:30.483Z,15.8
2023-04-07T09:40:38.889Z,15.8
2023-04-07T09:41:47.306Z,15.8
2023-04-07T09:42:55.787Z,16.299999
2023-04-07T09:44:04.150Z,16.299999
2023-04-07T09:45:14.543Z,16.299999
2023-04-07T09:46:21.361Z,14.9
2023-04-07T09:47:29.901Z,14.9
2023-04-07T09:48:38.306Z,14.9
2023-04-07T09:49:47.024Z,15.7
2023-04-07T09:50:55.479Z,15.7
2023-04-07T09:52:03.977Z,15.7
2023-04-07T09:53:12.633Z,16.6
2023-04-07T09:54:21.093Z,16.6
2023-04-07T09:55:29.616Z,16.6
2023-04-07T09:56:38.325Z,16.9
2023-04-07T09:57:46.848Z,16.9
2023-04-07T09:58:55.345Z,16.9
2023-04-07T10:00:03.996Z,15.9
2023-04-07T10:01:12.471Z,15.9
2023-04-07T10:02:20.982Z,15.9
2023-04-07T10:03:29.737Z,15.9
2023-04-07T10:04:38.197Z,15.9
2023-04-07T10:05:46.651Z,15.9
2023-04-07T10:06:55.362Z,18.200001
2023-04-07T10:08:03.860Z,18.200001
2023-04-07T10:09:12.331Z,18.200001
2023-04-07T10:10:21.046Z,15.4
2023-04-07T10:11:29.549Z,15.4
2023-04-07T10:12:38.092Z,15.4
2023-04-07T10:13:47.011Z,15
2023-04-07T10:14:55.348Z,15
2023-04-07T10:16:03.851Z,15
2023-04-07T10:17:12.557Z,14.7
2023-04-07T10:18:21.074Z,14.7
2023-04-07T10:19:29.622Z,14.7
2023-04-07T10:20:38.330Z,15.1
2023-04-07T10:21:46.864Z,15.1
2023-04-07T10:22:55.400Z,15.1
2023-04-07T10:24:04.151Z,12.7
2023-04-07T10:25:12.685Z,12.7
2023-04-07T10:26:21.270Z,12.7
2023-04-07T10:27:30.033Z,11.2
2023-04-07T10:28:38.589Z,11.2
2023-04-07T10:29:47.147Z,11.2
2023-04-07T10:30:55.975Z,13.2
2023-04-07T10:32:04.458Z,13.2
2023-04-07T10:33:12.955Z,13.2
2023-04-07T10:34:21.651Z,12.5
2023-04-07T10:35:30.273Z,12.5
2023-04-07T10:36:38.711Z,12.5
2023-04-07T10:37:47.444Z,15.3
2023-04-07T10:38:55.989Z,15.3
2023-04-07T10:40:04.570Z,15.3
2023-04-07T10:41:13.354Z,13.6
2023-04-07T10:42:21.927Z,13.6
2023-04-07T10:43:30.479Z,13.6
2023-04-07T10:44:39.284Z,12.7
2023-04-07T10:45:47.913Z,12.7
2023-04-07T10:46:56.497Z,12.7
2023-04-07T10:48:05.343Z,10.2
2023-04-07T10:49:14.718Z,10.2
2023-04-07T10:50:22.575Z,10.2
2023-04-07T10:51:31.362Z,11.2
2023-04-07T10:52:39.945Z,11.2
2023-04-07T10:53:48.786Z,11.2
2023-04-07T10:54:57.296Z,15.1
2023-04-07T10:56:05.874Z,15.1
2023-04-07T10:57:14.458Z,15.1
2023-04-07T10:58:23.407Z,17.1
2023-04-07T10:59:32.364Z,17.1
2023-04-07T11:00:41.347Z,17.1
2023-04-07T11:01:50.539Z,14.9
2023-04-07T11:02:59.479Z,14.9
2023-04-07T11:04:08.388Z,14.9
2023-04-07T11:05:17.492Z,15.7
2023-04-07T11:06:26.555Z,15.7
2023-04-07T11:07:35.568Z,15.7
2023-04-07T11:08:46.812Z,14.9
2023-04-07T11:09:54.086Z,14.9
2023-04-07T11:11:03.161Z,14.9
2023-04-07T11:12:12.424Z,15.9
2023-04-07T11:13:21.698Z,15.9
2023-04-07T11:14:30.818Z,15.9
2023-04-07T11:15:40.825Z,17.4
2023-04-07T11:16:49.382Z,17.4
2023-04-07T11:17:58.596Z,17.4
2023-04-07T11:19:07.997Z,16.5
2023-04-07T11:20:17.165Z,16.5
2023-04-07T11:21:26.374Z,16.5
2023-04-07T11:22:35.717Z,19.5
2023-04-07T11:23:44.990Z,19.5
2023-04-07T11:24:54.117Z,19.5
2023-04-07T11:26:03.406Z,16
2023-04-07T11:27:12.365Z,16
2023-04-07T11:28:21.565Z,16
2023-04-07T11:29:30.764Z,13.7
2023-04-07T11:30:39.964Z,13.7
2023-04-07T11:31:49.027Z,13.7
2023-04-07T11:32:58.135Z,14.3
2023-04-07T11:34:07.248Z,14.3
2023-04-07T11:35:16.136Z,14.3
2023-04-07T11:36:25.384Z,15.4
2023-04-07T11:37:34.450Z,15.4
2023-04-07T11:38:44.371Z,15.4
2023-04-07T11:39:52.718Z,14.8
2023-04-07T11:41:01.768Z,14.8
2023-04-07T11:42:10.957Z,14.8
2023-04-07T11:43:20.375Z,13.9
2023-04-07T11:44:29.486Z,13.9
2023-04-07T11:45:38.679Z,13.9
2023-04-07T11:46:48.196Z,13.8
2023-04-07T11:47:57.324Z,13.8
2023-04-07T11:49:06.325Z,13.8
2023-04-07T11:50:15.668Z,14
2023-04-07T11:51:24.911Z,14
2023-04-07T11:52:33.874Z,14
2023-04-07T11:53:45.793Z,14
2023-04-07T11:54:55.057Z,14
2023-04-07T11:56:04.313Z,14
2023-04-07T11:57:13.877Z,15.4
2023-04-07T11:58:23.180Z,15.4
2023-04-07T11:59:32.337Z,15.4
2023-04-07T12:00:41.760Z,15.5
2023-04-07T12:01:50.850Z,15.5
2023-04-07T12:03:00.232Z,15.5
2023-04-07T12:04:09.639Z,16.799999
2023-04-07T12:05:18.907Z,16.799999
2023-04-07T12:06:28.054Z,16.799999
2023-04-07T12:07:37.308Z,13.8
2023-04-07T12:08:46.656Z,13.8
2023-04-07T12:09:55.918Z,13.8
2023-04-07T12:11:05.193Z,14.7
2023-04-07T12:12:14.235Z,14.7
2023-04-07T12:13:23.251Z,14.7
2023-04-07T12:14:32.637Z,13.1
2023-04-07T12:15:41.921Z,13.1
2023-04-07T12:16:51.233Z,13.1
2023-04-07T12:18:00.635Z,12.4
2023-04-07T12:19:09.718Z,12.4
2023-04-07T12:20:19.002Z,12.4
2023-04-07T12:21:28.308Z,12.6
2023-04-07T12:22:37.525Z,12.6
2023-04-07T12:23:46.861Z,12.6
2023-04-07T12:24:56.186Z,13.8
2023-04-07T12:26:05.618Z,13.8
2023-04-07T12:27:14.894Z,13.8
2023-04-07T12:28:24.323Z,12.9
2023-04-07T12:29:33.196Z,12.9
2023-04-07T12:30:42.543Z,12.9
2023-04-07T12:31:51.774Z,13.2
2023-04-07T12:33:00.641Z,13.2
2023-04-07T12:34:09.028Z,13.2
2023-04-07T12:35:17.670Z,14.1
2023-04-07T12:36:26.146Z,14.1
2023-04-07T12:37:34.738Z,14.1
2023-04-07T12:38:44.298Z,14.8
2023-04-07T12:39:55.028Z,14.8
2023-04-07T12:41:05.525Z,14.8
2023-04-07T12:42:16.472Z,13.6
2023-04-07T12:43:27.245Z,13.6
2023-04-07T12:44:37.559Z,13.6
2023-04-07T12:45:48.331Z,12.4
2023-04-07T12:46:59.038Z,12.4
2023-04-07T12:48:09.851Z,12.4
2023-04-07T12:49:20.711Z,12.8
2023-04-07T12:50:31.247Z,12.8
2023-04-07T12:51:41.880Z,12.8
2023-04-07T12:52:52.924Z,12.2
2023-04-07T12:54:03.991Z,12.2
2023-04-07T12:55:14.601Z,12.2
2023-04-07T12:56:25.237Z,12.3
2023-04-07T12:57:35.995Z,12.3
2023-04-07T12:58:46.805Z,12.3
2023-04-07T12:59:57.706Z,13.3
2023-04-07T13:01:08.261Z,13.3
2023-04-07T13:02:19.044Z,13.3
2023-04-07T13:03:29.923Z,12.6
2023-04-07T13:04:40.812Z,12.6
2023-04-07T13:05:51.291Z,12.6
2023-04-07T13:07:02.011Z,12.3
2023-04-07T13:08:12.712Z,12.3
2023-04-07T13:09:23.588Z,12.3
2023-04-07T13:10:34.378Z,12.2
2023-04-07T13:11:45.233Z,12.2
2023-04-07T13:12:56.132Z,12.2
2023-04-07T13:14:07.119Z,13.6
2023-04-07T13:15:17.894Z,13.6
2023-04-07T13:16:28.834Z,13.6
2023-04-07T13:17:39.749Z,12.6
2023-04-07T13:18:50.640Z,12.6
2023-04-07T13:20:01.531Z,12.6
2023-04-07T13:21:41.085Z,17.5
2023-04-07T13:22:24.599Z,17.5
2023-04-07T13:23:42.566Z,17.5
2023-04-07T13:24:45.664Z,12.9
2023-04-07T13:25:56.589Z,12.9
2023-04-07T13:27:07.375Z,12.9
2023-04-07T13:28:18.641Z,11.6
2023-04-07T13:29:30.097Z,11.6
2023-04-07T13:30:39.032Z,11.6
2023-04-07T13:31:49.949Z,11.8
2023-04-07T13:33:00.869Z,11.8
2023-04-07T13:34:11.212Z,11.8
2023-04-07T13:35:20.126Z,11.9
2023-04-07T13:36:28.819Z,11.9
2023-04-07T13:37:37.459Z,11.9
2023-04-07T13:38:46.392Z,13.1
2023-04-07T13:39:55.042Z,13.1
2023-04-07T13:41:03.615Z,13.1
2023-04-07T13:42:12.709Z,12.3
2023-04-07T13:43:21.107Z,12.3
2023-04-07T13:44:29.745Z,12.3
2023-04-07T13:45:38.615Z,11.8
2023-04-07T13:46:47.291Z,11.8
2023-04-07T13:47:56.912Z,11.8
2023-04-07T13:49:04.683Z,12.6
2023-04-07T13:50:13.267Z,12.6
2023-04-07T13:51:21.867Z,12.6
2023-04-07T13:52:30.642Z,11.3
2023-04-07T13:53:39.226Z,11.3
2023-04-07T13:54:47.799Z,11.3
2023-04-07T13:55:56.723Z,13
2023-04-07T13:57:05.542Z,13
2023-04-07T13:58:14.332Z,13
2023-04-07T13:59:23.529Z,14.7
2023-04-07T14:00:32.264Z,14.7
2023-04-07T14:01:41.153Z,14.7
2023-04-07T14:02:50.246Z,12.1
2023-04-07T14:04:00.799Z,12.1
2023-04-07T14:05:07.738Z,12.1
2023-04-07T14:06:16.622Z,14.6
2023-04-07T14:07:25.374Z,14.6
2023-04-07T14:08:34.259Z,14.6
2023-04-07T14:09:43.347Z,11.5
2023-04-07T14:10:52.024Z,11.5
2023-04-07T14:12:00.891Z,11.5
2023-04-07T14:13:10.023Z,11.1
2023-04-07T14:14:18.841Z,11.1
2023-04-07T14:15:27.815Z,11.1
2023-04-07T14:16:37.215Z,11.2
2023-04-07T14:17:46.007Z,11.2
2023-04-07T14:18:54.721Z,11.2
2023-04-07T14:20:03.662Z,12.8
2023-04-07T14:21:12.353Z,12.8
2023-04-07T14:22:21.017Z,12.8
2023-04-07T14:23:36.354Z,12.3
2023-04-07T14:24:38.617Z,12.3
2023-04-07T14:25:47.247Z,12.3
2023-04-07T14:26:56.109Z,10.7
2023-04-07T14:28:04.846Z,10.7
2023-04-07T14:29:13.613Z,10.7
2023-04-07T14:30:22.555Z,12.1
2023-04-07T14:31:31.307Z,12.1
2023-04-07T14:32:39.937Z,12.1
2023-04-07T14:33:49.034Z,11.5
2023-04-07T14:34:57.665Z,11.5
2023-04-07T14:36:06.385Z,11.5
2023-04-07T14:37:15.339Z,10.1
2023-04-07T14:38:24.224Z,10.1
2023-04-07T14:39:33.067Z,10.1
2023-04-07T14:40:41.936Z,11.9
2023-04-07T14:41:50.644Z,11.9
2023-04-07T14:44:08.166Z,11
2023-04-07T14:45:16.859Z,11
2023-04-07T14:46:25.582Z,11
2023-04-07T14:47:34.537Z,12
2023-04-07T14:48:43.228Z,12
2023-04-07T14:49:53.497Z,12
2023-04-07T14:51:09.125Z,11.4
2023-04-07T14:52:09.667Z,11.4
2023-04-07T14:53:18.504Z,11.4
2023-04-07T14:54:27.462Z,11.4
2023-04-07T14:55:36.251Z,11.4